createdAt,value
2022-10-10T00:00:39.773Z,5.01
2022-10-10T00:05:41.737Z,4.99
2022-10-10T00:10:43.434Z,5.06
2022-10-10T00:15:48.678Z,5.15
2022-10-10T00:20:52.639Z,5.24
2022-10-10T00:25:54.659Z,5.23
2022-10-10T00:30:56.444Z,5.22
2022-10-10T00:35:58.152Z,5.28
2022-10-10T00:41:00.792Z,5.36
2022-10-10T00:46:02.504Z,5.39
2022-10-10T00:51:15.068Z,5.40
2022-10-10T00:56:21.354Z,5.37
2022-10-10T01:01:23.201Z,5.34
2022-10-10T01:06:25.125Z,5.31
2022-10-10T01:11:48.600Z,5.26
2022-10-10T01:17:16.668Z,5.19
2022-10-10T01:22:26.082Z,5.15
2022-10-10T01:27:42.704Z,5.13
2022-10-10T01:33:08.607Z,5.13
2022-10-10T01:38:50.776Z,5.16
2022-10-10T01:43:57.807Z,5.18
2022-10-10T01:49:00.908Z,5.23
2022-10-10T01:54:05.406Z,5.26
2022-10-10T01:59:25.186Z,5.29
2022-10-10T02:04:31.940Z,5.37
2022-10-10T02:09:40.810Z,5.45
2022-10-10T02:14:51.164Z,5.48
2022-10-10T02:19:56.902Z,5.52
2022-10-10T02:24:58.802Z,5.49
2022-10-10T02:30:02.694Z,5.46
2022-10-10T02:35:09.481Z,5.49
2022-10-10T02:40:14.210Z,5.48
2022-10-10T02:45:16.552Z,5.42
2022-10-10T02:50:18.324Z,5.36
2022-10-10T02:55:20.327Z,5.28
2022-10-10T03:00:22.032Z,5.25
2022-10-10T03:05:23.727Z,5.16
2022-10-10T03:10:25.374Z,5.13
2022-10-10T03:15:27.011Z,5.10
2022-10-10T03:20:28.680Z,5.06
2022-10-10T03:25:30.337Z,5.00
2022-10-10T03:30:32.026Z,4.94
2022-10-10T03:35:33.850Z,4.91
2022-10-10T03:40:40.844Z,4.85
2022-10-10T03:45:44.270Z,4.80
2022-10-10T03:50:45.983Z,4.77
2022-10-10T03:55:47.675Z,4.75
2022-10-10T04:00:57.178Z,4.72
2022-10-10T04:05:58.929Z,4.77
2022-10-10T04:11:00.614Z,4.76
2022-10-10T04:16:02.351Z,4.71
2022-10-10T04:21:05.504Z,4.65
2022-10-10T04:26:08.215Z,4.58
2022-10-10T04:31:09.956Z,4.53
2022-10-10T04:36:11.712Z,4.47
2022-10-10T04:41:13.356Z,4.38
2022-10-10T04:46:15.062Z,4.32
2022-10-10T04:51:17.213Z,4.31
2022-10-10T04:56:18.891Z,4.25
2022-10-10T05:01:20.643Z,4.18
2022-10-10T05:06:22.468Z,4.13
2022-10-10T05:11:24.120Z,4.10
2022-10-10T05:16:25.920Z,4.07
2022-10-10T05:21:28.624Z,4.08
2022-10-10T05:26:30.548Z,4.10
2022-10-10T05:31:32.370Z,4.12
2022-10-10T05:36:34.072Z,4.19
2022-10-10T05:41:36.616Z,4.31
2022-10-10T05:46:38.452Z,4.48
2022-10-10T05:51:40.215Z,4.73
2022-10-10T05:56:42.014Z,4.93
2022-10-10T06:01:43.716Z,5.08
2022-10-10T06:06:45.694Z,5.30
2022-10-10T06:11:47.336Z,5.53
2022-10-10T06:16:49.019Z,5.74
2022-10-10T06:21:50.699Z,5.99
2022-10-10T06:26:52.588Z,6.21
2022-10-10T06:31:54.328Z,6.42
2022-10-10T06:36:56.136Z,6.67
2022-10-10T06:41:57.920Z,6.90
2022-10-10T06:47:00.770Z,7.14
2022-10-10T06:52:02.538Z,7.42
2022-10-10T06:57:04.266Z,7.67
2022-10-10T07:02:05.962Z,7.92
2022-10-10T07:07:07.676Z,8.25
2022-10-10T07:12:10.186Z,8.78
2022-10-10T07:17:11.876Z,8.96
2022-10-10T07:22:14.103Z,9.07
2022-10-10T07:27:15.779Z,9.20
2022-10-10T07:32:17.488Z,9.37
2022-10-10T07:37:19.117Z,9.58
2022-10-10T07:42:21.530Z,9.79
2022-10-10T07:47:23.284Z,10.01
2022-10-10T07:52:24.984Z,10.25
2022-10-10T07:57:26.810Z,10.47
2022-10-10T08:02:28.504Z,10.69
2022-10-10T08:07:30.437Z,10.94
2022-10-10T08:12:32.092Z,11.14
2022-10-10T08:17:34.288Z,11.36
2022-10-10T08:22:35.975Z,11.54
2022-10-10T08:27:37.732Z,11.74
2022-10-10T08:32:39.493Z,11.93
2022-10-10T08:37:41.115Z,12.13
2022-10-10T08:42:52.635Z,12.32
2022-10-10T08:48:03.117Z,12.51
2022-10-10T08:53:14.245Z,12.67
2022-10-10T08:58:23.961Z,12.82
2022-10-10T09:03:48.877Z,12.96
2022-10-10T09:09:11.942Z,13.10
2022-10-10T09:14:25.740Z,13.30
2022-10-10T09:19:43.046Z,13.45
2022-10-10T09:24:59.127Z,13.64
2022-10-10T09:30:20.819Z,13.79
2022-10-10T09:35:29.288Z,13.99
2022-10-10T09:40:37.718Z,14.16
2022-10-10T09:45:46.332Z,14.36
2022-10-10T09:50:48.138Z,14.61
2022-10-10T09:55:53.821Z,14.78
2022-10-10T10:01:10.077Z,14.85
2022-10-10T10:06:15.249Z,15.00
2022-10-10T10:11:28.308Z,15.18
2022-10-10T10:16:39.123Z,15.39
2022-10-10T10:21:51.844Z,15.61
2022-10-10T10:26:53.597Z,15.80
2022-10-10T10:32:22.303Z,15.98
2022-10-10T10:37:35.866Z,16.15
2022-10-10T10:42:59.368Z,16.26
2022-10-10T10:48:25.268Z,16.41
2022-10-10T10:53:40.529Z,16.53
2022-10-10T11:05:24.219Z,16.82
2022-10-10T11:10:21.099Z,17.01
2022-10-10T11:15:53.992Z,17.18
2022-10-10T11:21:07.135Z,17.29
2022-10-10T11:26:18.145Z,17.40
2022-10-10T11:31:33.060Z,17.46
2022-10-10T11:36:38.956Z,17.55
2022-10-10T11:41:47.391Z,17.64
2022-10-10T11:47:17.369Z,17.71
2022-10-10T11:52:54.206Z,17.79
2022-10-10T11:58:19.383Z,17.90
2022-10-10T12:03:21.057Z,18.02
2022-10-10T12:08:36.039Z,18.11
2022-10-10T12:13:42.965Z,18.17
2022-10-10T12:18:53.694Z,18.20
2022-10-10T12:24:13.780Z,18.24
2022-10-10T12:29:51.257Z,18.28
2022-10-10T12:34:53.051Z,18.31
2022-10-10T12:40:06.945Z,18.38
2022-10-10T12:45:30.750Z,18.48
2022-10-10T12:50:37.044Z,18.50
2022-10-10T12:55:45.084Z,18.51
2022-10-10T13:00:48.520Z,18.54
2022-10-10T13:05:52.419Z,18.59
2022-10-10T13:11:15.682Z,18.61
2022-10-10T13:16:20.191Z,18.62
2022-10-10T13:21:27.617Z,18.61
2022-10-10T13:26:36.499Z,18.58
2022-10-10T13:31:38.506Z,18.56
2022-10-10T13:36:40.332Z,18.56
2022-10-10T13:41:52.753Z,18.56
2022-10-10T13:46:54.491Z,18.58
2022-10-10T13:52:20.487Z,18.58
2022-10-10T13:57:25.917Z,18.57
2022-10-10T14:02:33.690Z,18.57
2022-10-10T14:07:36.605Z,18.51
2022-10-10T14:12:49.163Z,18.44
2022-10-10T14:17:50.813Z,18.35
2022-10-10T14:22:52.533Z,18.28
2022-10-10T14:27:54.231Z,18.20
2022-10-10T14:32:56.216Z,18.11
2022-10-10T14:37:57.980Z,17.99
2022-10-10T14:43:00.280Z,17.86
2022-10-10T14:48:02.077Z,17.73
2022-10-10T14:53:04.864Z,17.59
2022-10-10T14:58:06.746Z,17.45
2022-10-10T15:03:08.486Z,17.27
2022-10-10T15:08:14.594Z,17.12
2022-10-10T15:13:16.350Z,16.98
2022-10-10T15:18:49.221Z,16.84
2022-10-10T15:23:40.064Z,16.65
2022-10-10T15:28:41.871Z,16.50
2022-10-10T15:33:43.685Z,16.33
2022-10-10T15:38:45.399Z,16.14
2022-10-10T15:43:54.621Z,15.96
2022-10-10T15:49:01.504Z,15.75
2022-10-10T15:54:04.373Z,15.56
2022-10-10T15:59:08.352Z,15.34
2022-10-10T16:04:10.890Z,15.11
2022-10-10T16:09:27.809Z,14.88
2022-10-10T16:14:30.763Z,14.65
2022-10-10T16:19:32.485Z,14.44
2022-10-10T16:24:34.313Z,14.26
2022-10-10T16:29:35.944Z,14.08
2022-10-10T16:34:37.821Z,13.89
2022-10-10T16:39:40.185Z,13.74
2022-10-10T16:44:41.958Z,13.59
2022-10-10T16:49:43.628Z,13.37
2022-10-10T16:54:49.890Z,13.16
2022-10-10T16:59:53.651Z,13.02
2022-10-10T17:04:57.397Z,12.92
2022-10-10T17:09:59.089Z,12.82
2022-10-10T17:15:01.672Z,12.70
2022-10-10T17:20:05.452Z,12.57
2022-10-10T17:25:07.729Z,12.47
2022-10-10T17:30:12.604Z,12.34
2022-10-10T17:35:14.324Z,12.24
2022-10-10T17:40:16.300Z,12.12
2022-10-10T17:45:18.041Z,12.01
2022-10-10T17:50:19.945Z,11.90
2022-10-10T17:55:21.736Z,11.80
2022-10-10T18:00:23.499Z,11.68
2022-10-10T18:05:25.293Z,11.57
2022-10-10T18:10:27.171Z,11.47
2022-10-10T18:15:29.840Z,11.37
2022-10-10T18:20:31.608Z,11.27
2022-10-10T18:25:34.114Z,11.14
2022-10-10T18:30:40.151Z,11.02
2022-10-10T18:35:41.873Z,10.91
2022-10-10T18:40:43.641Z,10.80
2022-10-10T18:45:45.365Z,10.70
2022-10-10T18:50:47.054Z,10.60
2022-10-10T18:55:55.288Z,10.50
2022-10-10T19:01:02.663Z,10.38
2022-10-10T19:06:06.971Z,10.27
2022-10-10T19:11:19.008Z,10.18
2022-10-10T19:16:21.186Z,10.07
2022-10-10T19:21:22.892Z,9.99
2022-10-10T19:26:25.149Z,9.91
2022-10-10T19:31:30.098Z,9.82
2022-10-10T19:36:31.827Z,9.72
2022-10-10T19:41:33.646Z,9.63
2022-10-10T19:46:37.372Z,9.55
2022-10-10T19:51:39.623Z,9.47
2022-10-10T19:56:41.273Z,9.40
2022-10-10T20:01:43.010Z,9.36
2022-10-10T20:06:44.989Z,9.32
2022-10-10T20:11:46.660Z,9.28
2022-10-10T20:16:48.319Z,9.26
2022-10-10T20:21:50.571Z,9.26
2022-10-10T20:26:53.673Z,9.24
2022-10-10T20:31:55.331Z,9.22
2022-10-10T20:36:57.196Z,9.19
2022-10-10T20:41:58.970Z,9.18
2022-10-10T20:47:00.592Z,9.21
2022-10-10T20:52:02.378Z,9.24
2022-10-10T20:57:04.077Z,9.29
2022-10-10T21:02:06.257Z,9.39
2022-10-10T21:07:07.973Z,9.53
2022-10-10T21:12:09.707Z,9.65
2022-10-10T21:17:17.711Z,9.76
2022-10-10T21:22:19.582Z,9.85
2022-10-10T21:27:21.526Z,9.95
2022-10-10T21:32:23.233Z,10.09
2022-10-10T21:37:28.640Z,10.22
2022-10-10T21:42:30.317Z,10.34
2022-10-10T21:47:32.067Z,10.49
2022-10-10T21:52:38.990Z,10.66
2022-10-10T21:57:40.729Z,10.80
2022-10-10T22:02:42.926Z,10.94
2022-10-10T22:07:45.620Z,11.06
2022-10-10T22:12:47.430Z,11.20
2022-10-10T22:17:49.157Z,11.34
2022-10-10T22:22:50.900Z,11.42
2022-10-10T22:27:56.989Z,11.52
2022-10-10T22:32:59.060Z,11.58
2022-10-10T22:38:01.623Z,11.64
2022-10-10T22:43:03.387Z,11.72
2022-10-10T22:48:05.303Z,11.77
2022-10-10T22:53:07.019Z,11.84
2022-10-10T22:58:09.101Z,11.91
2022-10-10T23:03:10.845Z,11.99
2022-10-10T23:08:12.920Z,12.06
2022-10-10T23:13:23.537Z,12.14
2022-10-10T23:18:25.219Z,12.19
2022-10-10T23:23:26.984Z,12.25
2022-10-10T23:28:28.720Z,12.30
2022-10-10T23:33:34.598Z,12.35
2022-10-10T23:38:39.219Z,12.39
2022-10-10T23:43:40.921Z,12.38
2022-10-10T23:48:43.462Z,12.38
2022-10-10T23:53:45.092Z,12.38
2022-10-10T23:58:47.146Z,12.37
